Bunch, OK (74931)

10:58 PM CST on December 20, 2014 (GMT -0600)
The Leaf PH | Change Station
CLOSE
Current Station
Personal Weather Station
Location: Park Hill, OK
Elevation: 814 ft
Nearby Weather Stations

Elev 814 ft 35.77 °N, 94.91 °W | Updated 1 minute ago

Overcast
Overcast
44.1 °F
Feels Like 44 °F
N
2.7
Wind Variable Wind from North

Today
High -- | Low -- °F
--% Chance of Precip.
Yesterday
High -- | Low -- °F
Precip. -- in
7:24 AM 5:08 PM
Waning Crescent, 1% visible
Pressure 30.21 in
Visibility 7.0 miles
Clouds Mostly Cloudy 2500 ft
Windchill 44 °F
Dew Point 44 °F
Humidity 98%
Rainfall 0.00 in
Snow Depth Not available.
UV 0 out of 12
Pollen 5.70 out of 12
Air Quality Not available.
Flu Activity Not available.
METAR KJSV 210435Z AUTO 10004KT 7SM BKN025 07/05 A3021 RMK AO2

More Conditions Fewer Conditions

Pressure 30.21 in
Visibility 7.0 miles
Clouds Mostly Cloudy 2500 ft
Windchill 44 °F
Dew Point 44 °F
Humidity 98%
Rainfall 0.00 in
Snow Depth Not available.
UV 0 out of 12
Pollen 5.70 out of 12
Air Quality Not available.
Flu Activity Not available.
METAR KJSV 210435Z AUTO 10004KT 7SM BKN025 07/05 A3021 RMK AO2

More Conditions Fewer Conditions

10-Day Weather Forecast

Almanac

Astronomy

Dec. 20, 2014 Rise Set
Actual Time
Civil Twilight
Nautical Twilight
Astronomical Twilight
Moon
Length of Visible Light
Length of Day
Tomorrow will be .
, % of the Moon is Illuminated

Today's Extremes

State Highs State Lows

Community

WunderPhotos

Upload Photos

1,779,358 photos uploaded!

WunderBlogs® & News

Nearby

Air Quality

  Air Quality AQ Index Pollutant
Not available.

Snow Depth

Station Depth Elevation

Earthquake Activity

City Distance Mag. Time & Date
Minimum magnitude displayed is 2.5.

Coastal Water Temperatures

Place Temperature

Nearby Weather Stations